Terminal Aerodrome Forecast
Issued by NWS Jackson, KY

Home | Current Version | Previous Version | Text Only | Print | Product List | Glossary Off
Versions: 1 2 3 4 5 6 7 8 9 10 11 12 13 14

097
FTUS43 KJKL 252342
TAFJKL
TAF
KJKL 252342Z 2600/2624 19005KT P6SM SCT070 BKN250
     FM260600 18006KT P6SM VCSH FEW030 SCT060 BKN250
     FM261200 15004KT 6SM -SHRA VCTS FEW025CB OVC050
     FM261400 17008KT 4SM SHRA VCTS FEW015CB OVC040=

USA.gov is the U.S. government's official web portal to all federal, state and local government web resources and services.